sensor_id;sensor_type;location;lat;lon;timestamp;pressure;altitude;pressure_sealevel;temperature;humidity
68941;BME280;55982;51.476;7.552;2023-04-07T00:00:17;99596.00;;;6.97;100.00
68941;BME280;55982;51.476;7.552;2023-04-07T00:02:42;99596.00;;;6.97;100.00
68941;BME280;55982;51.476;7.552;2023-04-07T00:05:08;99597.72;;;6.98;100.00
68941;BME280;55982;51.476;7.552;2023-04-07T00:07:33;99599.38;;;7.02;100.00
68941;BME280;55982;51.476;7.552;2023-04-07T00:09:59;99592.53;;;6.98;100.00
68941;BME280;55982;51.476;7.552;2023-04-07T00:12:24;99599.41;;;6.99;100.00
68941;BME280;55982;51.476;7.552;2023-04-07T00:14:50;99594.16;;;7.02;100.00
68941;BME280;55982;51.476;7.552;2023-04-07T00:17:15;99592.44;;;7.01;100.00
68941;BME280;55982;51.476;7.552;2023-04-07T00:19:40;99593.34;;;7.00;100.00
68941;BME280;55982;51.476;7.552;2023-04-07T00:22:06;99592.44;;;7.01;100.00
68941;BME280;55982;51.476;7.552;2023-04-07T00:24:31;99596.00;;;6.97;100.00
68941;BME280;55982;51.476;7.552;2023-04-07T00:26:56;99593.38;;;6.99;100.00
68941;BME280;55982;51.476;7.552;2023-04-07T00:29:22;99592.53;;;6.98;100.00
68941;BME280;55982;51.476;7.552;2023-04-07T00:31:47;99587.31;;;6.98;100.00
68941;BME280;55982;51.476;7.552;2023-04-07T00:34:12;99594.16;;;7.02;100.00
68941;BME280;55982;51.476;7.552;2023-04-07T00:36:38;99593.25;;;7.03;100.00
68941;BME280;55982;51.476;7.552;2023-04-07T00:39:03;99593.31;;;7.02;100.00
68941;BME280;55982;51.476;7.552;2023-04-07T00:41:29;99587.25;;;7.01;100.00
68941;BME280;55982;51.476;7.552;2023-04-07T00:43:54;99581.16;;;7.02;100.00
68941;BME280;55982;51.476;7.552;2023-04-07T00:46:21;99585.47;;;7.03;100.00
68941;BME280;55982;51.476;7.552;2023-04-07T00:48:46;99575.88;;;7.05;100.00
68941;BME280;55982;51.476;7.552;2023-04-07T00:51:12;99575.06;;;7.03;100.00
68941;BME280;55982;51.476;7.552;2023-04-07T00:53:38;99577.66;;;7.05;100.00
68941;BME280;55982;51.476;7.552;2023-04-07T00:56:03;99580.22;;;7.06;100.00
68941;BME280;55982;51.476;7.552;2023-04-07T00:58:29;99568.06;;;7.05;100.00
68941;BME280;55982;51.476;7.552;2023-04-07T01:01:04;99566.28;;;7.07;100.00
68941;BME280;55982;51.476;7.552;2023-04-07T01:06:00;99563.69;;;7.07;100.00
68941;BME280;55982;51.476;7.552;2023-04-07T01:08:42;99559.34;;;7.08;100.00
68941;BME280;55982;51.476;7.552;2023-04-07T01:11:24;99568.84;;;7.09;100.00
68941;BME280;55982;51.476;7.552;2023-04-07T01:13:51;99561.03;;;7.10;100.00
68941;BME280;55982;51.476;7.552;2023-04-07T01:16:31;99568.03;;;7.08;100.00
68941;BME280;55982;51.476;7.552;2023-04-07T01:19:37;99563.56;;;7.13;100.00
68941;BME280;55982;51.476;7.552;2023-04-07T01:22:10;99561.91;;;7.09;100.00
68941;BME280;55982;51.476;7.552;2023-04-07T01:27:42;99560.19;;;7.10;100.00
68941;BME280;55982;51.476;7.552;2023-04-07T01:30:14;99559.31;;;7.09;100.00
68941;BME280;55982;51.476;7.552;2023-04-07T01:32:44;99552.41;;;7.08;100.00
68941;BME280;55982;51.476;7.552;2023-04-07T01:35:12;99555.84;;;7.10;100.00
68941;BME280;55982;51.476;7.552;2023-04-07T01:37:39;99553.16;;;7.13;100.00
68941;BME280;55982;51.476;7.552;2023-04-07T01:40:07;99553.97;;;7.15;100.00
68941;BME280;55982;51.476;7.552;2023-04-07T01:42:33;99557.41;;;7.17;100.00
68941;BME280;55982;51.476;7.552;2023-04-07T01:44:59;99559.13;;;7.18;100.00
68941;BME280;55982;51.476;7.552;2023-04-07T01:47:27;99556.47;;;7.20;100.00
68941;BME280;55982;51.476;7.552;2023-04-07T01:49:58;99555.69;;;7.16;100.00
68941;BME280;55982;51.476;7.552;2023-04-07T01:52:25;99557.41;;;7.17;100.00
68941;BME280;55982;51.476;7.552;2023-04-07T01:54:52;99554.75;;;7.19;100.00
68941;BME280;55982;51.476;7.552;2023-04-07T01:57:18;99553.91;;;7.18;100.00
68941;BME280;55982;51.476;7.552;2023-04-07T01:59:44;99548.72;;;7.18;100.00
68941;BME280;55982;51.476;7.552;2023-04-07T02:02:10;99548.72;;;7.17;100.00
68941;BME280;55982;51.476;7.552;2023-04-07T02:04:56;99542.59;;;7.19;100.00
68941;BME280;55982;51.476;7.552;2023-04-07T02:07:30;99548.72;;;7.18;100.00
68941;BME280;55982;51.476;7.552;2023-04-07T02:09:58;99548.72;;;7.18;100.00
68941;BME280;55982;51.476;7.552;2023-04-07T02:12:26;99547.81;;;7.19;100.00
68941;BME280;55982;51.476;7.552;2023-04-07T02:14:53;99546.00;;;7.23;100.00
68941;BME280;55982;51.476;7.552;2023-04-07T02:17:20;99548.69;;;7.20;100.00
68941;BME280;55982;51.476;7.552;2023-04-07T02:19:47;99549.59;;;7.17;100.00
68941;BME280;55982;51.476;7.552;2023-04-07T02:22:15;99547.00;;;7.17;100.00
68941;BME280;55982;51.476;7.552;2023-04-07T02:24:41;99547.00;;;7.17;100.00
68941;BME280;55982;51.476;7.552;2023-04-07T02:27:09;99545.13;;;7.22;100.00
68941;BME280;55982;51.476;7.552;2023-04-07T02:29:35;99540.88;;;7.20;100.00
68941;BME280;55982;51.476;7.552;2023-04-07T02:32:00;99543.50;;;7.18;100.00
68941;BME280;55982;51.476;7.552;2023-04-07T02:34:26;99548.63;;;7.21;100.00
68941;BME280;55982;51.476;7.552;2023-04-07T02:36:51;99545.06;;;7.25;100.00
68941;BME280;55982;51.476;7.552;2023-04-07T02:39:17;99541.69;;;7.22;100.00
68941;BME280;55982;51.476;7.552;2023-04-07T02:41:42;99549.44;;;7.23;100.00
68941;BME280;55982;51.476;7.552;2023-04-07T02:44:08;99543.44;;;7.21;100.00
68941;BME280;55982;51.476;7.552;2023-04-07T02:46:33;99549.44;;;7.23;100.00
68941;BME280;55982;51.476;7.552;2023-04-07T02:48:59;99547.72;;;7.22;100.00
68941;BME280;55982;51.476;7.552;2023-04-07T02:51:24;99553.75;;;7.24;100.00
68941;BME280;55982;51.476;7.552;2023-04-07T02:53:51;99547.66;;;7.25;100.00
68941;BME280;55982;51.476;7.552;2023-04-07T02:56:16;99547.56;;;7.28;100.00
68941;BME280;55982;51.476;7.552;2023-04-07T02:58:42;99544.19;;;7.25;100.00
68941;BME280;55982;51.476;7.552;2023-04-07T03:01:07;99546.69;;;7.29;100.00
68941;BME280;55982;51.476;7.552;2023-04-07T03:03:32;99544.16;;;7.28;100.00
68941;BME280;55982;51.476;7.552;2023-04-07T03:05:58;99545.84;;;7.29;100.00
68941;BME280;55982;51.476;7.552;2023-04-07T03:08:23;99539.78;;;7.28;100.00
68941;BME280;55982;51.476;7.552;2023-04-07T03:10:48;99539.78;;;7.28;100.00
68941;BME280;55982;51.476;7.552;2023-04-07T03:13:14;99541.56;;;7.26;100.00
68941;BME280;55982;51.476;7.552;2023-04-07T03:15:43;99541.50;;;7.29;100.00
68941;BME280;55982;51.476;7.552;2023-04-07T03:18:09;99545.88;;;7.27;100.00
68941;BME280;55982;51.476;7.552;2023-04-07T03:20:36;99544.97;;;7.28;100.00
68941;BME280;55982;51.476;7.552;2023-04-07T03:23:02;99546.63;;;7.32;100.00
68941;BME280;55982;51.476;7.552;2023-04-07T03:25:27;99545.78;;;7.30;100.00
68941;BME280;55982;51.476;7.552;2023-04-07T03:27:52;99539.63;;;7.34;100.00
68941;BME280;55982;51.476;7.552;2023-04-07T03:30:18;99546.63;;;7.32;100.00
68941;BME280;55982;51.476;7.552;2023-04-07T03:32:43;99539.63;;;7.34;100.00
68941;BME280;55982;51.476;7.552;2023-04-07T03:35:09;99541.34;;;7.35;100.00
68941;BME280;55982;51.476;7.552;2023-04-07T03:37:34;99542.19;;;7.37;100.00
68941;BME280;55982;51.476;7.552;2023-04-07T03:40:00;99534.28;;;7.40;100.00
68941;BME280;55982;51.476;7.552;2023-04-07T03:42:25;99534.44;;;7.34;100.00
68941;BME280;55982;51.476;7.552;2023-04-07T03:44:51;99539.63;;;7.34;100.00
68941;BME280;55982;51.476;7.552;2023-04-07T03:47:16;99543.00;;;7.39;100.00
68941;BME280;55982;51.476;7.552;2023-04-07T03:49:42;99549.06;;;7.38;100.00
68941;BME280;55982;51.476;7.552;2023-04-07T03:52:07;99548.25;;;7.36;100.00
68941;BME280;55982;51.476;7.552;2023-04-07T03:54:32;99541.34;;;7.35;100.00
68941;BME280;55982;51.476;7.552;2023-04-07T03:56:59;99549.97;;;7.37;100.00
68941;BME280;55982;51.476;7.552;2023-04-07T03:59:26;99549.97;;;7.37;100.00
68941;BME280;55982;51.476;7.552;2023-04-07T04:01:52;99543.06;;;7.36;100.00
68941;BME280;55982;51.476;7.552;2023-04-07T04:04:17;99548.25;;;7.36;100.00
68941;BME280;55982;51.476;7.552;2023-04-07T04:06:42;99542.19;;;7.37;100.00
68941;BME280;55982;51.476;7.552;2023-04-07T04:09:08;99551.72;;;7.37;100.00
68941;BME280;55982;51.476;7.552;2023-04-07T04:11:33;99555.19;;;7.37;100.00
68941;BME280;55982;51.476;7.552;2023-04-07T04:13:58;99559.56;;;7.35;100.00
68941;BME280;55982;51.476;7.552;2023-04-07T04:16:24;99557.03;;;7.32;100.00
68941;BME280;55982;51.476;7.552;2023-04-07T04:18:49;99560.53;;;7.31;100.00
68941;BME280;55982;51.476;7.552;2023-04-07T04:21:14;99563.03;;;7.34;100.00
68941;BME280;55982;51.476;7.552;2023-04-07T04:23:40;99562.22;;;7.32;100.00
68941;BME280;55982;51.476;7.552;2023-04-07T04:26:06;99558.75;;;7.33;100.00
68941;BME280;55982;51.476;7.552;2023-04-07T04:28:31;99555.25;;;7.34;100.00
68941;BME280;55982;51.476;7.552;2023-04-07T04:30:56;99563.94;;;7.33;100.00
68941;BME280;55982;51.476;7.552;2023-04-07T04:33:22;99558.59;;;7.39;100.00
68941;BME280;55982;51.476;7.552;2023-04-07T04:35:47;99565.66;;;7.34;100.00
68941;BME280;55982;51.476;7.552;2023-04-07T04:38:13;99568.22;;;7.36;100.00
68941;BME280;55982;51.476;7.552;2023-04-07T04:40:38;99567.38;;;7.35;100.00
68941;BME280;55982;51.476;7.552;2023-04-07T04:43:03;99569.06;;;7.36;100.00
68941;BME280;55982;51.476;7.552;2023-04-07T04:45:33;99572.50;;;7.38;100.00
68941;BME280;55982;51.476;7.552;2023-04-07T04:47:58;99576.00;;;7.37;100.00
68941;BME280;55982;51.476;7.552;2023-04-07T04:50:24;99574.13;;;7.43;100.00
68941;BME280;55982;51.476;7.552;2023-04-07T04:52:49;99577.59;;;7.41;100.00
68941;BME280;55982;51.476;7.552;2023-04-07T04:55:15;99583.63;;;7.43;100.00
68941;BME280;55982;51.476;7.552;2023-04-07T04:57:40;99574.13;;;7.43;100.00
68941;BME280;55982;51.476;7.552;2023-04-07T05:00:06;99578.28;;;7.50;100.00
68941;BME280;55982;51.476;7.552;2023-04-07T05:02:32;99584.41;;;7.49;100.00
68941;BME280;55982;51.476;7.552;2023-04-07T05:04:59;99583.56;;;7.47;100.00
68941;BME280;55982;51.476;7.552;2023-04-07T05:07:24;99581.78;;;7.49;100.00
68941;BME280;55982;51.476;7.552;2023-04-07T05:09:50;99584.16;;;7.58;100.00
68941;BME280;55982;51.476;7.552;2023-04-07T05:12:16;99587.56;;;7.60;100.00
68941;BME280;55982;51.476;7.552;2023-04-07T05:14:42;99583.34;;;7.56;100.00
68941;BME280;55982;51.476;7.552;2023-04-07T05:17:07;99587.72;;;7.54;100.00
68941;BME280;55982;51.476;7.552;2023-04-07T05:19:33;99594.66;;;7.55;100.00
68941;BME280;55982;51.476;7.552;2023-04-07T05:21:58;99588.41;;;7.62;100.00
68941;BME280;55982;51.476;7.552;2023-04-07T05:24:27;99598.75;;;7.63;100.00
68941;BME280;55982;51.476;7.552;2023-04-07T05:26:52;99595.19;;;7.67;100.00
68941;BME280;55982;51.476;7.552;2023-04-07T05:29:17;99599.53;;;7.67;100.00
68941;BME280;55982;51.476;7.552;2023-04-07T05:31:43;99603.81;;;7.69;100.00
68941;BME280;55982;51.476;7.552;2023-04-07T05:34:08;99602.91;;;7.72;100.00
68941;BME280;55982;51.476;7.552;2023-04-07T05:36:34;99611.44;;;7.77;100.00
68941;BME280;55982;51.476;7.552;2023-04-07T05:38:59;99616.75;;;7.74;100.00
68941;BME280;55982;51.476;7.552;2023-04-07T05:41:25;99608.84;;;7.77;100.00
68941;BME280;55982;51.476;7.552;2023-04-07T05:43:51;99615.72;;;7.79;100.00
68941;BME280;55982;51.476;7.552;2023-04-07T05:46:16;99610.44;;;7.82;100.00
68941;BME280;55982;51.476;7.552;2023-04-07T05:48:42;99622.53;;;7.85;100.00
68941;BME280;55982;51.476;7.552;2023-04-07T05:51:07;99612.97;;;7.84;100.00
68941;BME280;55982;51.476;7.552;2023-04-07T05:53:32;99616.09;;;7.98;100.00
68941;BME280;55982;51.476;7.552;2023-04-07T05:55:58;99616.34;;;7.89;100.00
68941;BME280;55982;51.476;7.552;2023-04-07T05:58:23;99616.09;;;7.98;100.00
68941;BME280;55982;51.476;7.552;2023-04-07T06:00:49;99618.84;;;7.93;100.00
68941;BME280;55982;51.476;7.552;2023-04-07T06:03:14;99620.22;;;8.06;100.00
68941;BME280;55982;51.476;7.552;2023-04-07T06:05:41;99621.25;;;8.01;100.00
68941;BME280;55982;51.476;7.552;2023-04-07T06:08:08;99632.03;;;7.86;100.00
68941;BME280;55982;51.476;7.552;2023-04-07T06:10:34;99637.22;;;7.87;100.00
68941;BME280;55982;51.476;7.552;2023-04-07T06:12:59;99631.00;;;7.93;100.00
68941;BME280;55982;51.476;7.552;2023-04-07T06:15:25;99631.72;;;7.98;100.00
68941;BME280;55982;51.476;7.552;2023-04-07T06:17:50;99643.06;;;7.95;100.00
68941;BME280;55982;51.476;7.552;2023-04-07T06:20:16;99642.97;;;8.00;100.00
68941;BME280;55982;51.476;7.552;2023-04-07T06:22:41;99650.94;;;7.94;100.00
68941;BME280;55982;51.476;7.552;2023-04-07T06:25:07;99647.13;;;8.07;100.00
68941;BME280;55982;51.476;7.552;2023-04-07T06:27:34;99648.22;;;7.98;100.00
68941;BME280;55982;51.476;7.552;2023-04-07T06:30:00;99649.09;;;7.99;100.00
68941;BME280;55982;51.476;7.552;2023-04-07T06:32:25;99651.06;;;7.88;100.00
68941;BME280;55982;51.476;7.552;2023-04-07T06:34:50;99654.34;;;7.96;100.00
68941;BME280;55982;51.476;7.552;2023-04-07T06:37:16;99654.19;;;8.02;100.00
68941;BME280;55982;51.476;7.552;2023-04-07T06:39:42;99648.22;;;7.98;100.00
68941;BME280;55982;51.476;7.552;2023-04-07T06:42:08;99655.13;;;7.99;100.00
68941;BME280;55982;51.476;7.552;2023-04-07T06:44:33;99659.66;;;7.93;100.00
68941;BME280;55982;51.476;7.552;2023-04-07T06:46:58;99664.72;;;7.99;100.00
68941;BME280;55982;51.476;7.552;2023-04-07T06:49:24;99663.19;;;7.90;100.00
68941;BME280;55982;51.476;7.552;2023-04-07T06:51:49;99665.34;;;8.07;100.00
68941;BME280;55982;51.476;7.552;2023-04-07T06:54:15;99666.16;;;8.09;100.00
68941;BME280;55982;51.476;7.552;2023-04-07T06:56:41;99664.47;;;8.08;100.00
68941;BME280;55982;51.476;7.552;2023-04-07T06:59:07;99668.13;;;8.01;100.00
68941;BME280;55982;51.476;7.552;2023-04-07T07:01:33;99671.47;;;8.06;100.00
68941;BME280;55982;51.476;7.552;2023-04-07T07:03:58;99674.91;;;8.08;100.00
68941;BME280;55982;51.476;7.552;2023-04-07T07:06:28;99673.09;;;8.10;100.00
68941;BME280;55982;51.476;7.552;2023-04-07T07:08:56;99677.38;;;8.12;100.00
68941;BME280;55982;51.476;7.552;2023-04-07T07:11:21;99675.78;;;8.07;100.00
68941;BME280;55982;51.476;7.552;2023-04-07T07:13:47;99671.16;;;8.18;100.00
68941;BME280;55982;51.476;7.552;2023-04-07T07:16:12;99676.00;;;8.33;100.00
68941;BME280;55982;51.476;7.552;2023-04-07T07:18:37;99680.16;;;8.40;100.00
68941;BME280;55982;51.476;7.552;2023-04-07T07:21:03;99684.38;;;8.44;100.00
68941;BME280;55982;51.476;7.552;2023-04-07T07:23:29;99675.91;;;8.36;100.00
68941;BME280;55982;51.476;7.552;2023-04-07T07:25:54;99684.69;;;8.32;100.00
68941;BME280;55982;51.476;7.552;2023-04-07T07:28:20;99681.44;;;8.24;100.00
68941;BME280;55982;51.476;7.552;2023-04-07T07:30:46;99687.91;;;8.43;100.00
68941;BME280;55982;51.476;7.552;2023-04-07T07:33:12;99694.75;;;8.46;100.00
68941;BME280;55982;51.476;7.552;2023-04-07T07:35:38;99694.50;;;8.56;100.00
68941;BME280;55982;51.476;7.552;2023-04-07T07:38:04;99692.69;;;8.58;100.00
68941;BME280;55982;51.476;7.552;2023-04-07T07:40:30;99692.88;;;8.52;100.00
68941;BME280;55982;51.476;7.552;2023-04-07T07:42:56;99700.03;;;8.44;100.00
68941;BME280;55982;51.476;7.552;2023-04-07T07:45:21;99699.00;;;8.50;100.00
68941;BME280;55982;51.476;7.552;2023-04-07T07:47:46;99692.25;;;8.43;100.00
68941;BME280;55982;51.476;7.552;2023-04-07T07:50:12;99702.63;;;8.44;100.00
68941;BME280;55982;51.476;7.552;2023-04-07T07:52:37;99704.38;;;8.45;100.00
68941;BME280;55982;51.476;7.552;2023-04-07T07:55:03;99700.84;;;8.46;100.00
68941;BME280;55982;51.476;7.552;2023-04-07T07:57:28;99715.81;;;8.38;100.00
68941;BME280;55982;51.476;7.552;2023-04-07T07:59:56;99715.59;;;8.47;100.00
68941;BME280;55982;51.476;7.552;2023-04-07T08:02:21;99712.91;;;8.50;100.00
68941;BME280;55982;51.476;7.552;2023-04-07T08:04:47;99712.34;;;8.39;100.00
68941;BME280;55982;51.476;7.552;2023-04-07T08:07:12;99722.25;;;8.57;100.00
68941;BME280;55982;51.476;7.552;2023-04-07T08:09:37;99731.06;;;8.53;100.00
68941;BME280;55982;51.476;7.552;2023-04-07T08:12:03;99739.84;;;8.49;100.00
68941;BME280;55982;51.476;7.552;2023-04-07T08:14:28;99724.00;;;8.58;100.00
68941;BME280;55982;51.476;7.552;2023-04-07T08:16:54;99739.84;;;8.51;100.00
68941;BME280;55982;51.476;7.552;2023-04-07T08:19:20;99732.53;;;8.63;100.00
68941;BME280;55982;51.476;7.552;2023-04-07T08:21:45;99736.81;;;8.66;100.00
68941;BME280;55982;51.476;7.552;2023-04-07T08:24:11;99733.41;;;8.64;100.00
68941;BME280;55982;51.476;7.552;2023-04-07T08:26:37;99734.31;;;8.61;100.00
68941;BME280;55982;51.476;7.552;2023-04-07T08:29:02;99739.09;;;8.78;100.00
68941;BME280;55982;51.476;7.552;2023-04-07T08:31:28;99739.81;;;8.83;100.00
68941;BME280;55982;51.476;7.552;2023-04-07T08:33:53;99741.63;;;8.81;100.00
68941;BME280;55982;51.476;7.552;2023-04-07T08:36:23;99744.19;;;8.82;100.00
68941;BME280;55982;51.476;7.552;2023-04-07T08:38:48;99743.72;;;8.67;100.00
68941;BME280;55982;51.476;7.552;2023-04-07T08:41:17;99741.25;;;8.62;100.00
68941;BME280;55982;51.476;7.552;2023-04-07T08:43:45;99748.34;;;8.57;100.00
68941;BME280;55982;51.476;7.552;2023-04-07T08:46:13;99758.16;;;8.48;100.00
68941;BME280;55982;51.476;7.552;2023-04-07T08:48:42;99759.72;;;8.53;100.00
68941;BME280;55982;51.476;7.552;2023-04-07T08:51:09;99758.03;;;8.52;100.00
68941;BME280;55982;51.476;7.552;2023-04-07T08:53:48;99762.75;;;8.38;100.00
68941;BME280;55982;51.476;7.552;2023-04-07T08:56:18;99760.25;;;8.67;100.00
68941;BME280;55982;51.476;7.552;2023-04-07T08:58:47;99767.19;;;8.68;100.00
68941;BME280;55982;51.476;7.552;2023-04-07T09:01:13;99768.38;;;8.55;100.00
68941;BME280;55982;51.476;7.552;2023-04-07T09:03:41;99772.06;;;8.80;100.00
68941;BME280;55982;51.476;7.552;2023-04-07T09:06:09;99771.25;;;8.78;100.00
68941;BME280;55982;51.476;7.552;2023-04-07T09:08:37;99765.97;;;8.80;100.00
68941;BME280;55982;51.476;7.552;2023-04-07T09:11:03;99774.09;;;8.69;100.00
68941;BME280;55982;51.476;7.552;2023-04-07T09:13:28;99768.78;;;8.72;100.00
68941;BME280;55982;51.476;7.552;2023-04-07T09:15:57;99770.19;;;8.85;100.00
68941;BME280;55982;51.476;7.552;2023-04-07T09:18:23;99779.06;;;8.78;100.00
68941;BME280;55982;51.476;7.552;2023-04-07T09:21:05;99781.66;;;8.78;100.00
68941;BME280;55982;51.476;7.552;2023-04-07T09:23:36;99782.59;;;8.77;100.00
68941;BME280;55982;51.476;7.552;2023-04-07T09:26:24;99782.59;;;8.77;100.00
68941;BME280;55982;51.476;7.552;2023-04-07T09:28:56;99784.63;;;8.66;100.00
68941;BME280;55982;51.476;7.552;2023-04-07T09:31:22;99783.97;;;8.90;100.00
68941;BME280;55982;51.476;7.552;2023-04-07T09:33:51;99780.66;;;8.84;100.00
68941;BME280;55982;51.476;7.552;2023-04-07T09:36:17;99781.56;;;8.83;100.00
68941;BME280;55982;51.476;7.552;2023-04-07T09:38:44;99780.94;;;8.73;100.00
68941;BME280;55982;51.476;7.552;2023-04-07T09:41:15;99779.56;;;8.60;100.00
68941;BME280;55982;51.476;7.552;2023-04-07T09:43:42;99781.97;;;8.68;100.00
68941;BME280;55982;51.476;7.552;2023-04-07T09:46:16;99786.41;;;8.64;100.00
68941;BME280;55982;51.476;7.552;2023-04-07T09:48:43;99787.28;;;8.63;100.00
68941;BME280;55982;51.476;7.552;2023-04-07T09:51:11;99786.16;;;8.73;100.00
68941;BME280;55982;51.476;7.552;2023-04-07T09:53:51;99788.19;;;8.94;100.00
68941;BME280;55982;51.476;7.552;2023-04-07T09:56:21;99794.38;;;8.58;100.00
68941;BME280;55982;51.476;7.552;2023-04-07T09:58:49;99795.78;;;8.71;100.00
68941;BME280;55982;51.476;7.552;2023-04-07T10:01:16;99805.09;;;8.81;100.00
68941;BME280;55982;51.476;7.552;2023-04-07T10:03:42;99810.16;;;8.87;100.00
68941;BME280;55982;51.476;7.552;2023-04-07T10:06:08;99809.44;;;8.81;100.00
68941;BME280;55982;51.476;7.552;2023-04-07T10:08:36;99805.38;;;8.69;100.00
68941;BME280;55982;51.476;7.552;2023-04-07T10:11:04;99801.56;;;8.82;100.00
68941;BME280;55982;51.476;7.552;2023-04-07T10:13:32;99815.34;;;8.87;100.00
68941;BME280;55982;51.476;7.552;2023-04-07T10:16:00;99812.19;;;8.75;100.00
68941;BME280;55982;51.476;7.552;2023-04-07T10:18:29;99811.38;;;8.73;100.00
68941;BME280;55982;51.476;7.552;2023-04-07T10:21:04;99812.09;;;8.79;100.00
68941;BME280;55982;51.476;7.552;2023-04-07T10:26:22;99818.78;;;8.89;100.00
68941;BME280;55982;51.476;7.552;2023-04-07T10:28:54;99810.97;;;8.88;100.00
68941;BME280;55982;51.476;7.552;2023-04-07T10:31:21;99813.63;;;8.86;100.00
68941;BME280;55982;51.476;7.552;2023-04-07T10:33:50;99817.91;;;8.55;100.00
68941;BME280;55982;51.476;7.552;2023-04-07T10:36:20;99824.47;;;8.71;100.00
68941;BME280;55982;51.476;7.552;2023-04-07T10:41:37;99821.03;;;8.69;100.00
68941;BME280;55982;51.476;7.552;2023-04-07T10:44:07;99827.84;;;8.75;100.00
68941;BME280;55982;51.476;7.552;2023-04-07T10:49:16;99834.31;;;8.60;100.00
68941;BME280;55982;51.476;7.552;2023-04-07T10:51:41;99829.53;;;8.77;100.00
68941;BME280;55982;51.476;7.552;2023-04-07T10:54:20;99832.13;;;8.77;100.00
68941;BME280;55982;51.476;7.552;2023-04-07T10:59:32;99839.88;;;8.80;100.00
68941;BME280;55982;51.476;7.552;2023-04-07T11:04:45;99844.94;;;8.86;100.00
68941;BME280;55982;51.476;7.552;2023-04-07T11:07:12;99845.03;;;8.83;100.00
68941;BME280;55982;51.476;7.552;2023-04-07T11:09:39;99848.66;;;8.76;100.00
68941;BME280;55982;51.476;7.552;2023-04-07T11:12:06;99855.06;;;8.98;100.00
68941;BME280;55982;51.476;7.552;2023-04-07T11:14:32;99849.59;;;9.07;100.00
68941;BME280;55982;51.476;7.552;2023-04-07T11:16:59;99848.03;;;9.00;100.00
68941;BME280;55982;51.476;7.552;2023-04-07T11:19:27;99855.72;;;9.05;100.00
68941;BME280;55982;51.476;7.552;2023-04-07T11:22:15;99850.56;;;9.03;100.00
68941;BME280;55982;51.476;7.552;2023-04-07T11:24:41;99852.66;;;8.91;100.00
68941;BME280;55982;51.476;7.552;2023-04-07T11:27:13;99851.31;;;8.75;100.00
68941;BME280;55982;51.476;7.552;2023-04-07T11:29:39;99862.47;;;8.81;100.00
68941;BME280;55982;51.476;7.552;2023-04-07T11:32:05;99855.66;;;8.74;100.00
68941;BME280;55982;51.476;7.552;2023-04-07T11:34:31;99862.31;;;8.87;100.00
68941;BME280;55982;51.476;7.552;2023-04-07T11:36:58;99863.84;;;8.94;100.00
68941;BME280;55982;51.476;7.552;2023-04-07T11:39:42;99867.84;;;9.07;100.00
68941;BME280;55982;51.476;7.552;2023-04-07T11:42:10;99866.88;;;9.11;100.00
68941;BME280;55982;51.476;7.552;2023-04-07T11:44:44;99870.06;;;9.22;100.00
68941;BME280;55982;51.476;7.552;2023-04-07T11:47:09;99870.41;;;9.10;100.00
68941;BME280;55982;51.476;7.552;2023-04-07T11:49:43;99868.50;;;9.15;100.00
68941;BME280;55982;51.476;7.552;2023-04-07T11:52:11;99875.16;;;9.27;100.00
68941;BME280;55982;51.476;7.552;2023-04-07T11:54:45;99868.91;;;9.33;100.00
68941;BME280;55982;51.476;7.552;2023-04-07T11:57:27;99875.13;;;9.29;100.00
68941;BME280;55982;51.476;7.552;2023-04-07T12:00:06;99876.94;;;9.25;100.00
68941;BME280;55982;51.476;7.552;2023-04-07T12:02:33;99879.25;;;9.37;100.00
68941;BME280;55982;51.476;7.552;2023-04-07T12:04:59;99887.69;;;9.45;100.00
68941;BME280;55982;51.476;7.552;2023-04-07T12:07:24;99886.59;;;9.54;100.00
68941;BME280;55982;51.476;7.552;2023-04-07T12:09:52;99890.78;;;9.29;100.00
68941;BME280;55982;51.476;7.552;2023-04-07T12:12:27;99890.88;;;9.26;100.00
68941;BME280;55982;51.476;7.552;2023-04-07T12:14:53;99889.59;;;9.40;100.00
68941;BME280;55982;51.476;7.552;2023-04-07T12:17:23;99897.34;;;9.74;100.00
68941;BME280;55982;51.476;7.552;2023-04-07T12:19:49;99896.06;;;9.58;100.00
68941;BME280;55982;51.476;7.552;2023-04-07T12:22:14;99896.16;;;9.22;100.00
68941;BME280;55982;51.476;7.552;2023-04-07T12:24:39;99901.53;;;9.16;100.00
68941;BME280;55982;51.476;7.552;2023-04-07T12:27:05;99907.09;;;9.37;100.00
68941;BME280;55982;51.476;7.552;2023-04-07T12:29:32;99901.63;;;9.13;100.00
68941;BME280;55982;51.476;7.552;2023-04-07T12:31:58;99907.63;;;8.83;100.00
68941;BME280;55982;51.476;7.552;2023-04-07T12:34:24;99907.34;;;8.59;100.00
68941;BME280;55982;51.476;7.552;2023-04-07T12:36:49;99909.94;;;8.60;100.00
68941;BME280;55982;51.476;7.552;2023-04-07T12:39:15;99912.41;;;8.66;100.00
68941;BME280;55982;51.476;7.552;2023-04-07T12:41:40;99921.94;;;8.67;100.00
68941;BME280;55982;51.476;7.552;2023-04-07T12:44:06;99915.75;;;8.71;100.00
68941;BME280;55982;51.476;7.552;2023-04-07T12:46:32;99916.94;;;8.58;100.00
68941;BME280;55982;51.476;7.552;2023-04-07T12:48:57;99924.25;;;8.79;100.00
68941;BME280;55982;51.476;7.552;2023-04-07T12:51:22;99925.78;;;8.86;100.00
68941;BME280;55982;51.476;7.552;2023-04-07T12:53:48;99931.97;;;8.82;100.00
68941;BME280;55982;51.476;7.552;2023-04-07T12:56:13;99932.13;;;8.76;100.00
68941;BME280;55982;51.476;7.552;2023-04-07T12:58:39;99934.34;;;8.91;100.00
68941;BME280;55982;51.476;7.552;2023-04-07T13:01:05;99934.97;;;9.02;100.00
68941;BME280;55982;51.476;7.552;2023-04-07T13:03:31;99924.91;;;9.21;100.00
68941;BME280;55982;51.476;7.552;2023-04-07T13:05:56;99931.06;;;9.18;100.00
68941;BME280;55982;51.476;7.552;2023-04-07T13:08:28;99922.81;;;9.01;100.00
68941;BME280;55982;51.476;7.552;2023-04-07T13:10:54;99933.97;;;9.08;100.00
68941;BME280;55982;51.476;7.552;2023-04-07T13:13:19;99930.50;;;9.40;100.00
68941;BME280;55982;51.476;7.552;2023-04-07T13:15:44;99925.28;;;9.40;100.00
68941;BME280;55982;51.476;7.552;2023-04-07T13:18:10;99924.19;;;9.14;100.00